»·PEaware :: N4462U KCMA-KWHP

N4462U :: KCMA-KWHP

FLIGHT INFORMATION

Flight Status: Arrived
Operator: Privately registered:
United States
More flights under this callsign
Pilot: Robert C. (26285)
Aircraft: SOCATA TBM-850
(TBM8)
More flights by this aircraft type
Origin: KCMA Camarillo
United States
Destination: KWHP Whiteman
United States
More flights between these airports :: More routes between these airports
Route: VNY255 GINNA
File this flight plan on PilotEdge
Remarks: VTUP3 (Ventura 3)
Altitude:
(Current/Filed)
5,000ft
Speed:
(Current/Filed)
180kts
Departed: 28-Nov-23 11:01 AM
Arrived: 28-Nov-23 11:23 AM
Distance/Time
Traveled:
34nm/0:21
Distance/Time
To Go:
Arrived

Flight Plot

Page will automatically refresh every two minutes.


Map Options




Map Legend


Flown Route
Filed Route
Departure Airport
Arrival Airport
Navaid (VOR, NDB)
Fix

Horizontal Profiles

Position Reports

Time Latitude Longitude Heading Altitude Ground
Speed
28-Nov-23 10:20 34.210117 -119.078452 271 82ft 0kts
28-Nov-23 10:21 34.210117 -119.078452 271 82ft 0kts
28-Nov-23 10:22 34.210117 -119.078452 271 82ft 0kts
28-Nov-23 10:23 34.210117 -119.078452 271 82ft 0kts
28-Nov-23 10:24 34.210117 -119.078452 271 81ft 0kts
28-Nov-23 10:25 34.210117 -119.078452 271 81ft 0kts
28-Nov-23 10:26 34.210117 -119.078452 271 81ft 0kts
28-Nov-23 10:27 34.210117 -119.078452 271 81ft 0kts
28-Nov-23 10:28 34.210117 -119.078452 271 81ft 0kts
28-Nov-23 10:29 34.210117 -119.078452 271 81ft 0kts
28-Nov-23 10:30 34.210117 -119.078452 271 81ft 0kts
28-Nov-23 10:31 34.210117 -119.078452 271 81ft 0kts
28-Nov-23 10:32 34.210117 -119.078452 271 81ft 0kts
28-Nov-23 10:33 34.210117 -119.078452 271 81ft 0kts
28-Nov-23 10:34 34.210117 -119.078452 271 81ft 0kts
28-Nov-23 10:35 34.210117 -119.078452 271 81ft 0kts
28-Nov-23 10:36 34.210117 -119.078452 271 81ft 0kts
28-Nov-23 10:37 34.210117 -119.078452 271 81ft 0kts
28-Nov-23 10:38 34.210117 -119.078452 271 81ft 0kts
28-Nov-23 10:39 34.210117 -119.078452 271 81ft 0kts
28-Nov-23 10:40 34.210117 -119.078452 271 81ft 0kts
28-Nov-23 10:41 34.210117 -119.078452 271 81ft 0kts
28-Nov-23 10:42 34.210117 -119.078452 271 81ft 0kts
28-Nov-23 10:43 34.210117 -119.078452 271 81ft 0kts
28-Nov-23 10:44 34.210117 -119.078452 271 81ft 0kts
28-Nov-23 10:45 34.210117 -119.078452 271 81ft 0kts
28-Nov-23 10:46 34.210117 -119.078452 271 81ft 0kts
28-Nov-23 10:47 34.210117 -119.078452 271 81ft 0kts
28-Nov-23 10:48 34.210117 -119.078452 271 81ft 0kts
28-Nov-23 10:49 34.210117 -119.078452 271 81ft 0kts
28-Nov-23 10:50 34.210117 -119.078452 271 81ft 0kts
28-Nov-23 10:51 34.210117 -119.078452 271 81ft 0kts
28-Nov-23 10:52 34.210117 -119.078452 271 81ft 0kts
28-Nov-23 10:53 34.210117 -119.078452 271 81ft 0kts
28-Nov-23 10:54 34.210117 -119.078452 271 81ft 0kts
28-Nov-23 10:55 34.210857 -119.078710 306 81ft 3kts
28-Nov-23 10:56 34.210903 -119.080947 270 80ft 8kts
28-Nov-23 10:57 34.210929 -119.084233 269 80ft 6kts
28-Nov-23 10:58 34.212760 -119.084610 1 78ft 6kts
28-Nov-23 10:59 34.212808 -119.084609 0 78ft 0kts
28-Nov-23 11:00 34.213708 -119.087890 270 74ft 67kts
28-Nov-23 11:01 34.219626 -119.129044 287 1274ft 154kts
28-Nov-23 11:02 34.230907 -119.177895 286 3574ft 147kts
28-Nov-23 11:03 34.244860 -119.233447 287 4791ft 190kts
28-Nov-23 11:04 34.243378 -119.293734 196 5007ft 193kts
28-Nov-23 11:05 34.216407 -119.251352 90 5029ft 185kts
28-Nov-23 11:06 34.217565 -119.190639 90 4996ft 181kts
28-Nov-23 11:07 34.218511 -119.130831 89 5003ft 177kts
28-Nov-23 11:08 34.219476 -119.071292 90 5010ft 177kts
28-Nov-23 11:09 34.220390 -119.012182 90 4999ft 175kts
28-Nov-23 11:10 34.221245 -118.952693 89 4992ft 178kts
28-Nov-23 11:11 34.224048 -118.894597 86 5045ft 171kts
28-Nov-23 11:12 34.223170 -118.837798 89 5018ft 166kts
28-Nov-23 11:13 34.223516 -118.780813 92 5035ft 173kts
28-Nov-23 11:14 34.223566 -118.723882 89 4423ft 141kts
28-Nov-23 11:15 34.223489 -118.669447 90 4011ft 160kts
28-Nov-23 11:16 34.223474 -118.617781 89 3911ft 150kts
28-Nov-23 11:17 34.223483 -118.568037 91 3889ft 146kts
28-Nov-23 11:18 34.221176 -118.514741 87 2756ft 147kts
28-Nov-23 11:19 34.231535 -118.471094 60 2561ft 137kts
28-Nov-23 11:20 34.249537 -118.433245 33 1946ft 126kts
28-Nov-23 11:21 34.276318 -118.431572 111 1747ft 101kts
28-Nov-23 11:22 34.258578 -118.412703 140 991ft 20kts
28-Nov-23 11:23 34.258129 -118.411549 317 986ft 6kts
28-Nov-23 11:24 34.260115 -118.413623 339 999ft 7kts
28-Nov-23 11:25 34.261781 -118.413580 322 1007ft 7kts
28-Nov-23 11:26 34.261651 -118.413895 137 1006ft 0kts
28-Nov-23 11:27 34.261651 -118.413895 137 1006ft 0kts
28-Nov-23 11:28 34.261651 -118.413895 137 1006ft 0kts
28-Nov-23 11:29 34.261651 -118.413895 138 1006ft 0kts
28-Nov-23 11:30 34.261651 -118.413895 138 1006ft 0kts
28-Nov-23 11:31 34.261651 -118.413895 138 1006ft 0kts
28-Nov-23 11:32 34.261651 -118.413895 138 1006ft 0kts
28-Nov-23 11:33 34.261651 -118.413895 138 1006ft 0kts
28-Nov-23 11:34 34.261651 -118.413895 138 1006ft 0kts
28-Nov-23 11:35 34.261651 -118.413895 138 1006ft 0kts

Navigation Log

Ident Type
Flight plan parsing failed, navigation log unavailable